createdAt,value
2022-12-23T00:01:27.310Z,88.09
2022-12-23T00:06:29.556Z,87.96
2022-12-23T00:11:31.806Z,87.85
2022-12-23T00:16:37.154Z,88.02
2022-12-23T00:21:39.449Z,88.00
2022-12-23T00:26:41.599Z,87.92
2022-12-23T00:31:43.944Z,88.00
2022-12-23T00:36:46.179Z,88.28
2022-12-23T00:42:06.861Z,87.96
2022-12-23T00:47:29.058Z,87.98
2022-12-23T00:52:31.952Z,87.98
2022-12-23T00:57:34.188Z,88.14
2022-12-23T01:02:54.938Z,87.98
2022-12-23T01:07:57.237Z,88.08
2022-12-23T01:12:59.452Z,87.93
2022-12-23T01:18:01.666Z,87.89
2022-12-23T01:23:03.933Z,87.86
2022-12-23T01:28:06.122Z,87.95
2022-12-23T01:33:08.340Z,87.92
2022-12-23T01:38:10.593Z,88.02
2022-12-23T01:43:17.797Z,88.07
2022-12-23T01:48:25.622Z,88.03
2022-12-23T01:53:27.788Z,87.96
2022-12-23T01:58:37.335Z,87.88
2022-12-23T02:03:42.530Z,87.90
2022-12-23T02:09:03.495Z,88.02
2022-12-23T02:14:32.498Z,88.08
2022-12-23T02:19:57.817Z,88.09
2022-12-23T02:25:18.827Z,88.13
2022-12-23T02:31:09.851Z,87.97
2022-12-23T02:36:12.076Z,88.06
2022-12-23T02:41:19.920Z,87.85
2022-12-23T02:46:28.090Z,87.87
2022-12-23T02:51:34.263Z,87.93
2022-12-23T02:56:37.845Z,87.81
2022-12-23T03:01:40.383Z,88.08
2022-12-23T03:06:45.486Z,87.99
2022-12-23T03:11:53.930Z,88.10
2022-12-23T03:17:08.396Z,88.09
2022-12-23T03:22:22.568Z,88.08
2022-12-23T03:27:31.892Z,88.17
2022-12-23T03:32:38.347Z,87.94
2022-12-23T03:37:44.171Z,88.32
2022-12-23T03:42:50.527Z,88.09
2022-12-23T03:47:56.916Z,88.12
2022-12-23T03:53:09.898Z,87.89
2022-12-23T03:58:25.643Z,88.04
2022-12-23T04:03:37.250Z,88.11
2022-12-23T04:08:40.383Z,87.96
2022-12-23T04:13:42.748Z,87.93
2022-12-23T04:18:45.011Z,87.88
2022-12-23T04:23:47.240Z,87.94
2022-12-23T04:28:49.414Z,87.95
2022-12-23T04:33:51.642Z,88.06
2022-12-23T04:38:53.824Z,88.12
2022-12-23T04:43:56.076Z,88.09
2022-12-23T04:48:58.465Z,87.96
2022-12-23T04:54:00.742Z,88.17
2022-12-23T04:59:04.494Z,88.05
2022-12-23T05:04:06.675Z,88.03
2022-12-23T05:09:09.267Z,88.11
2022-12-23T05:14:11.865Z,88.28
2022-12-23T05:19:14.607Z,88.20
2022-12-23T05:24:16.829Z,88.17
2022-12-23T05:29:19.052Z,88.13
2022-12-23T05:34:21.611Z,88.14
2022-12-23T05:39:23.942Z,88.27
2022-12-23T05:44:26.173Z,88.33
2022-12-23T05:49:28.485Z,88.19
2022-12-23T05:54:30.775Z,88.11
2022-12-23T05:59:33.022Z,88.21
2022-12-23T06:04:35.253Z,88.18
2022-12-23T06:09:37.473Z,88.31
2022-12-23T06:14:39.765Z,88.41
2022-12-23T06:19:42.024Z,88.22
2022-12-23T06:24:45.026Z,88.22
2022-12-23T06:29:49.247Z,88.33
2022-12-23T06:34:53.556Z,88.16
2022-12-23T06:39:56.070Z,88.46
2022-12-23T06:44:58.387Z,88.29
2022-12-23T06:50:00.781Z,88.38
2022-12-23T06:55:03.187Z,88.37
2022-12-23T07:00:06.431Z,88.38
2022-12-23T07:05:09.283Z,88.41
2022-12-23T07:10:11.553Z,88.40
2022-12-23T07:15:15.141Z,88.31
2022-12-23T07:20:17.414Z,88.38
2022-12-23T07:25:19.598Z,88.42
2022-12-23T07:30:22.656Z,88.28
2022-12-23T07:35:24.896Z,88.26
2022-12-23T07:40:27.452Z,88.38
2022-12-23T07:45:30.548Z,88.37
2022-12-23T07:50:33.663Z,88.37
2022-12-23T07:55:36.369Z,88.51
2022-12-23T08:00:38.640Z,88.32
2022-12-23T08:05:40.889Z,88.25
2022-12-23T08:10:48.277Z,88.29
2022-12-23T08:15:57.883Z,88.22
2022-12-23T08:21:06.020Z,88.20
2022-12-23T08:26:10.102Z,88.39
2022-12-23T08:31:21.041Z,88.40
2022-12-23T08:36:26.315Z,88.32
2022-12-23T08:41:31.656Z,88.28
2022-12-23T08:46:34.728Z,88.15
2022-12-23T08:51:38.045Z,88.42
2022-12-23T08:56:41.683Z,88.35
2022-12-23T09:01:44.101Z,88.25
2022-12-23T09:06:46.710Z,88.17
2022-12-23T09:11:48.908Z,88.42
2022-12-23T09:16:52.697Z,88.33
2022-12-23T09:21:57.964Z,88.47
2022-12-23T09:27:00.196Z,88.38
2022-12-23T09:32:02.419Z,88.43
2022-12-23T09:37:04.712Z,88.46
2022-12-23T09:42:14.901Z,88.47
2022-12-23T09:47:20.141Z,88.41
2022-12-23T09:52:31.568Z,88.47
2022-12-23T09:57:51.688Z,88.31
2022-12-23T10:03:12.319Z,88.37
2022-12-23T10:08:29.447Z,88.53
2022-12-23T10:13:54.155Z,88.41
2022-12-23T10:19:03.780Z,88.42
2022-12-23T10:24:07.512Z,88.58
2022-12-23T10:29:21.430Z,88.30
2022-12-23T10:34:36.624Z,88.43
2022-12-23T10:40:01.540Z,88.59
2022-12-23T10:45:10.889Z,88.44
2022-12-23T10:50:39.559Z,88.61
2022-12-23T10:55:41.930Z,88.48
2022-12-23T11:00:53.945Z,88.40
2022-12-23T11:05:57.855Z,88.61
2022-12-23T11:11:01.541Z,88.51
2022-12-23T11:16:20.116Z,88.64
2022-12-23T11:21:22.436Z,88.65
2022-12-23T11:26:25.275Z,88.51
2022-12-23T11:31:29.486Z,88.55
2022-12-23T11:36:34.777Z,88.30
2022-12-23T11:41:40.839Z,88.62
2022-12-23T11:46:43.558Z,88.59
2022-12-23T11:51:48.587Z,88.62
2022-12-23T11:56:52.948Z,88.73
2022-12-23T12:01:58.072Z,88.81
2022-12-23T12:07:01.364Z,88.57
2022-12-23T12:12:12.388Z,88.52
2022-12-23T12:17:17.829Z,88.53
2022-12-23T12:22:44.089Z,88.77
2022-12-23T12:27:52.888Z,88.45
2022-12-23T12:33:39.012Z,88.75
2022-12-23T12:38:41.334Z,88.72
2022-12-23T12:44:04.515Z,88.58
2022-12-23T12:49:29.521Z,88.50
2022-12-23T12:54:42.573Z,88.69
2022-12-23T12:59:45.742Z,88.79
2022-12-23T13:05:13.102Z,88.70
2022-12-23T13:10:30.029Z,88.64
2022-12-23T13:15:33.588Z,88.79
2022-12-23T13:20:42.472Z,88.75
2022-12-23T13:25:49.700Z,88.93
2022-12-23T13:31:21.867Z,88.51
2022-12-23T13:36:36.205Z,88.67
2022-12-23T13:41:48.368Z,88.58
2022-12-23T13:47:05.551Z,88.83
2022-12-23T13:52:32.613Z,88.71
2022-12-23T13:57:53.594Z,88.80
2022-12-23T14:03:00.250Z,88.79
2022-12-23T14:08:11.968Z,88.60
2022-12-23T14:13:16.091Z,88.63
2022-12-23T14:18:28.470Z,88.66
2022-12-23T14:24:08.209Z,88.81
2022-12-23T14:29:23.505Z,88.75
2022-12-23T14:34:31.773Z,88.53
2022-12-23T14:39:34.437Z,88.77
2022-12-23T14:44:37.098Z,88.83
2022-12-23T14:49:43.249Z,88.54
2022-12-23T14:55:06.050Z,88.89
2022-12-23T15:00:10.590Z,88.76
2022-12-23T15:05:13.119Z,88.67
2022-12-23T15:10:22.259Z,88.66
2022-12-23T15:15:30.204Z,88.70
2022-12-23T15:20:33.295Z,88.66
2022-12-23T15:25:41.980Z,88.77
2022-12-23T15:30:50.282Z,88.79
2022-12-23T15:35:52.908Z,88.72
2022-12-23T15:41:06.983Z,88.76
2022-12-23T15:46:15.500Z,88.87
2022-12-23T15:51:57.716Z,88.77
2022-12-23T15:56:52.122Z,88.79
2022-12-23T16:01:55.190Z,88.81
2022-12-23T16:07:03.695Z,88.78
2022-12-23T16:12:24.718Z,88.83
2022-12-23T16:17:37.094Z,88.77
2022-12-23T16:22:40.030Z,88.61
2022-12-23T16:28:09.440Z,88.70
2022-12-23T16:33:42.750Z,88.83
2022-12-23T16:38:45.612Z,88.91
2022-12-23T16:43:52.404Z,88.60
2022-12-23T16:49:06.706Z,88.74
2022-12-23T16:54:13.999Z,88.66
2022-12-23T16:59:17.093Z,88.78
2022-12-23T17:04:20.777Z,88.74
2022-12-23T17:09:23.057Z,88.56
2022-12-23T17:14:25.923Z,88.69
2022-12-23T17:19:29.232Z,88.69
2022-12-23T17:24:32.096Z,88.67
2022-12-23T17:29:34.402Z,88.70
2022-12-23T17:34:36.730Z,88.84
2022-12-23T17:39:38.973Z,88.78
2022-12-23T17:49:58.845Z,88.72
2022-12-23T17:55:01.892Z,88.65
2022-12-23T18:00:05.428Z,88.46
2022-12-23T18:05:32.609Z,88.72
2022-12-23T18:10:37.652Z,88.67
2022-12-23T18:15:42.978Z,88.77
2022-12-23T18:20:47.557Z,88.63
2022-12-23T18:25:53.001Z,88.48
2022-12-23T18:30:59.484Z,88.57
2022-12-23T18:36:01.808Z,88.42
2022-12-23T18:41:04.119Z,88.63
2022-12-23T18:46:06.558Z,88.60
2022-12-23T18:51:14.576Z,88.56
2022-12-23T18:56:21.379Z,88.56
2022-12-23T19:01:23.838Z,88.53
2022-12-23T19:06:27.034Z,88.42
2022-12-23T19:11:29.253Z,88.32
2022-12-23T19:16:35.626Z,88.56
2022-12-23T19:21:38.030Z,88.50
2022-12-23T19:26:42.710Z,88.64
2022-12-23T19:31:45.018Z,88.53
2022-12-23T19:36:47.454Z,88.45
2022-12-23T19:41:50.931Z,88.46
2022-12-23T19:46:53.295Z,88.67
2022-12-23T19:51:55.562Z,88.66
2022-12-23T19:56:57.892Z,88.50
2022-12-23T20:02:00.289Z,88.41
2022-12-23T20:07:02.720Z,88.60
2022-12-23T20:12:05.291Z,88.73
2022-12-23T20:17:08.772Z,88.51
2022-12-23T20:22:11.365Z,88.68
2022-12-23T20:27:15.944Z,88.54
2022-12-23T20:32:18.653Z,88.50
2022-12-23T20:37:23.652Z,88.59
2022-12-23T20:42:27.845Z,88.70
2022-12-23T20:47:30.130Z,88.62
2022-12-23T20:52:32.584Z,88.66
2022-12-23T20:57:36.112Z,88.57
2022-12-23T21:02:38.370Z,88.72
2022-12-23T21:07:40.670Z,88.57
2022-12-23T21:12:43.147Z,88.51
2022-12-23T21:17:45.420Z,88.60
2022-12-23T21:22:48.546Z,88.78
2022-12-23T21:27:51.192Z,88.57
2022-12-23T21:32:53.509Z,88.37
2022-12-23T21:37:55.800Z,88.49
2022-12-23T21:42:58.059Z,88.70
2022-12-23T21:48:00.373Z,88.61
2022-12-23T21:53:02.592Z,88.52
2022-12-23T21:58:04.820Z,88.57
2022-12-23T22:03:07.089Z,88.72
2022-12-23T22:08:09.350Z,88.57
2022-12-23T22:13:12.058Z,88.60
2022-12-23T22:18:14.282Z,88.65
2022-12-23T22:23:16.479Z,88.52
2022-12-23T22:28:18.652Z,88.57
2022-12-23T22:33:21.424Z,88.71
2022-12-23T22:38:23.677Z,88.43
2022-12-23T22:43:25.958Z,88.47
2022-12-23T22:48:29.426Z,88.80
2022-12-23T22:53:32.314Z,88.50
2022-12-23T22:58:34.832Z,88.53
2022-12-23T23:03:37.196Z,88.31
2022-12-23T23:08:39.459Z,88.51
2022-12-23T23:13:41.658Z,88.30
2022-12-23T23:18:43.896Z,88.43
2022-12-23T23:23:46.215Z,88.24
2022-12-23T23:28:48.615Z,88.67
2022-12-23T23:33:50.839Z,88.49
2022-12-23T23:38:53.069Z,88.35
2022-12-23T23:43:55.340Z,88.52
2022-12-23T23:48:57.873Z,88.47
2022-12-23T23:54:00.170Z,88.68
2022-12-23T23:59:02.371Z,88.58
